createdAt,value
2022-11-28T00:01:27.179Z,36.55
2022-11-28T00:03:54.148Z,37.42
2022-11-28T00:06:21.471Z,42.70
2022-11-28T00:08:48.404Z,40.58
2022-11-28T00:11:17.185Z,32.28
2022-11-28T00:13:45.275Z,37.45
2022-11-28T00:16:17.923Z,35.33
2022-11-28T00:18:44.870Z,32.10
2022-11-28T00:21:13.833Z,37.20
2022-11-28T00:23:41.860Z,33.47
2022-11-28T00:26:22.094Z,37.17
2022-11-28T00:31:17.867Z,35.97
2022-11-28T00:33:44.800Z,31.35
2022-11-28T00:36:12.024Z,35.08
2022-11-28T00:38:38.746Z,37.92
2022-11-28T00:41:11.313Z,38.03
2022-11-28T00:43:38.277Z,31.50
2022-11-28T00:46:05.172Z,32.97
2022-11-28T00:48:33.718Z,33.97
2022-11-28T00:51:30.648Z,42.22
2022-11-28T00:53:59.892Z,37.85
2022-11-28T00:56:32.435Z,41.33
2022-11-28T00:58:59.990Z,40.03
2022-11-28T01:01:29.890Z,41.13
2022-11-28T01:04:00.088Z,44.80
2022-11-28T01:08:55.416Z,43.42
2022-11-28T01:11:22.484Z,42.35
2022-11-28T01:13:49.408Z,46.42
2022-11-28T01:16:16.905Z,45.20
2022-11-28T01:18:43.604Z,41.63
2022-11-28T01:21:10.338Z,48.03
2022-11-28T01:23:37.710Z,39.33
2022-11-28T01:26:06.386Z,43.08
2022-11-28T01:28:33.839Z,43.67
2022-11-28T01:31:08.565Z,46.85
2022-11-28T01:33:35.431Z,44.53
2022-11-28T01:36:02.361Z,44.30
2022-11-28T01:38:29.548Z,42.75
2022-11-28T01:40:56.830Z,42.22
2022-11-28T01:43:24.480Z,43.45
2022-11-28T01:45:52.063Z,50.67
2022-11-28T01:48:52.397Z,52.25
2022-11-28T01:53:47.379Z,43.15
2022-11-28T01:56:19.024Z,53.00
2022-11-28T01:58:49.062Z,47.65
2022-11-28T02:01:16.787Z,46.17
2022-11-28T02:03:46.068Z,49.33
2022-11-28T02:06:15.221Z,47.67
2022-11-28T02:08:42.456Z,46.33
2022-11-28T02:11:40.276Z,50.80
2022-11-28T02:14:34.864Z,48.80
2022-11-28T02:17:20.639Z,54.10
2022-11-28T02:20:19.033Z,46.25
2022-11-28T02:23:20.750Z,47.50
2022-11-28T02:26:01.560Z,46.85
2022-11-28T02:28:55.428Z,48.20
2022-11-28T02:32:06.175Z,44.25
2022-11-28T02:34:54.618Z,47.80
2022-11-28T02:37:52.281Z,47.50
2022-11-28T02:40:27.823Z,47.40
2022-11-28T02:43:11.566Z,44.13
2022-11-28T02:45:54.002Z,47.95
2022-11-28T02:48:32.423Z,53.88
2022-11-28T02:51:06.271Z,48.35
2022-11-28T02:53:34.141Z,50.53
2022-11-28T02:56:01.114Z,53.58
2022-11-28T02:58:27.969Z,49.45
2022-11-28T03:00:56.549Z,56.25
2022-11-28T03:03:42.840Z,48.22
2022-11-28T03:06:30.830Z,53.85
2022-11-28T03:09:26.575Z,61.33
2022-11-28T03:12:32.664Z,62.35
2022-11-28T03:15:04.501Z,56.33
2022-11-28T03:17:52.016Z,54.67
2022-11-28T03:20:25.068Z,55.05
2022-11-28T03:23:19.154Z,55.63
2022-11-28T03:26:10.069Z,57.85
2022-11-28T03:28:55.020Z,52.53
2022-11-28T03:31:35.154Z,57.97
2022-11-28T03:34:06.301Z,52.67
2022-11-28T03:36:42.995Z,55.42
2022-11-28T03:39:13.760Z,56.72
2022-11-28T03:42:09.074Z,52.63
2022-11-28T03:44:46.330Z,52.88
2022-11-28T03:47:13.435Z,55.28
2022-11-28T03:49:45.003Z,61.65
2022-11-28T03:52:31.522Z,58.78
2022-11-28T03:55:07.722Z,51.63
2022-11-28T03:57:42.883Z,54.22
2022-11-28T04:00:13.077Z,54.38
2022-11-28T04:05:31.358Z,50.90
2022-11-28T04:08:13.711Z,53.45
2022-11-28T04:11:29.081Z,51.30
2022-11-28T04:14:05.426Z,51.67
2022-11-28T04:16:50.547Z,51.10
2022-11-28T04:19:29.427Z,52.58
2022-11-28T04:22:04.336Z,51.55
2022-11-28T04:24:38.595Z,54.60
2022-11-28T04:27:09.696Z,55.92
2022-11-28T04:29:41.128Z,56.08
2022-11-28T04:32:09.570Z,53.05
2022-11-28T04:34:38.516Z,52.60
2022-11-28T04:37:09.918Z,53.65
2022-11-28T04:39:38.247Z,51.78
2022-11-28T04:42:19.125Z,56.50
2022-11-28T04:44:49.387Z,57.72
2022-11-28T04:49:42.863Z,55.67
2022-11-28T04:52:24.837Z,60.22
2022-11-28T04:55:17.652Z,57.45
2022-11-28T04:57:50.619Z,52.08
2022-11-28T05:00:22.379Z,56.00
2022-11-28T05:02:53.197Z,59.38
2022-11-28T05:05:24.505Z,61.25
2022-11-28T05:07:52.203Z,60.53
2022-11-28T05:10:19.691Z,63.53
2022-11-28T05:12:46.480Z,60.13
2022-11-28T05:15:13.232Z,57.38
2022-11-28T05:17:42.422Z,58.78
2022-11-28T05:20:09.653Z,61.78
2022-11-28T05:22:36.398Z,69.28
2022-11-28T05:25:03.034Z,62.97
2022-11-28T05:27:29.611Z,62.47
2022-11-28T05:29:56.280Z,59.03
2022-11-28T05:32:22.915Z,63.42
2022-11-28T05:34:49.618Z,54.72
2022-11-28T05:37:16.264Z,57.65
2022-11-28T05:39:43.210Z,54.72
2022-11-28T05:42:10.060Z,59.25
2022-11-28T05:44:37.158Z,59.95
2022-11-28T05:47:03.785Z,56.20
2022-11-28T05:49:30.414Z,54.63
2022-11-28T05:51:57.131Z,65.13
2022-11-28T05:54:23.866Z,63.08
2022-11-28T05:56:50.500Z,58.53
2022-11-28T05:59:17.252Z,62.55
2022-11-28T06:01:44.095Z,64.07
2022-11-28T06:04:10.943Z,64.25
2022-11-28T06:06:37.752Z,56.63
2022-11-28T06:09:05.268Z,63.33
2022-11-28T06:11:33.167Z,60.08
2022-11-28T06:14:00.300Z,58.22
2022-11-28T06:16:29.098Z,65.68
2022-11-28T06:18:58.698Z,61.33
2022-11-28T06:21:26.585Z,57.03
2022-11-28T06:23:53.711Z,55.92
2022-11-28T06:26:22.485Z,58.35
2022-11-28T06:28:49.304Z,53.72
2022-11-28T06:31:21.359Z,57.53
2022-11-28T06:33:48.388Z,59.88
2022-11-28T06:36:16.402Z,54.47
2022-11-28T06:38:43.222Z,51.70
2022-11-28T06:41:12.283Z,53.45
2022-11-28T06:43:39.287Z,51.13
2022-11-28T06:46:14.618Z,53.47
2022-11-28T06:48:42.705Z,56.40
2022-11-28T06:51:09.443Z,58.90
2022-11-28T06:53:36.679Z,48.95
2022-11-28T06:56:11.604Z,55.30
2022-11-28T06:58:38.571Z,51.95
2022-11-28T07:01:07.170Z,50.35
2022-11-28T07:03:33.900Z,55.92
2022-11-28T07:06:02.398Z,55.50
2022-11-28T07:08:30.733Z,52.67
2022-11-28T07:10:57.914Z,57.08
2022-11-28T07:13:25.121Z,58.28
2022-11-28T07:15:52.243Z,58.97
2022-11-28T07:18:19.099Z,57.63
2022-11-28T07:20:45.734Z,66.57
2022-11-28T07:23:12.466Z,63.15
2022-11-28T07:25:39.059Z,64.10
2022-11-28T07:28:05.887Z,65.97
2022-11-28T07:30:32.754Z,63.88
2022-11-28T07:32:59.395Z,66.75
2022-11-28T07:35:26.012Z,65.38
2022-11-28T07:37:52.793Z,68.68
2022-11-28T07:40:20.751Z,63.08
2022-11-28T07:42:48.869Z,65.32
2022-11-28T07:45:15.737Z,68.22
2022-11-28T07:47:42.399Z,63.38
2022-11-28T07:50:09.774Z,62.15
2022-11-28T07:52:36.722Z,73.22
2022-11-28T07:55:03.663Z,68.50
2022-11-28T07:57:30.791Z,63.17
2022-11-28T07:59:57.485Z,68.40
2022-11-28T08:02:24.139Z,70.00
2022-11-28T08:04:55.142Z,61.75
2022-11-28T08:07:22.279Z,64.65
2022-11-28T08:09:49.087Z,65.07
2022-11-28T08:12:15.683Z,55.92
2022-11-28T08:14:42.874Z,59.08
2022-11-28T08:17:09.713Z,55.38
2022-11-28T08:19:36.439Z,55.25
2022-11-28T08:22:03.117Z,53.60
2022-11-28T08:24:29.843Z,61.13
2022-11-28T08:26:57.200Z,54.47
2022-11-28T08:29:23.872Z,55.10
2022-11-28T08:31:50.616Z,59.38
2022-11-28T08:34:17.469Z,55.28
2022-11-28T08:36:44.761Z,55.83
2022-11-28T08:39:27.528Z,55.35
2022-11-28T08:41:59.663Z,54.42
2022-11-28T08:44:30.455Z,53.00
2022-11-28T08:46:57.244Z,50.72
2022-11-28T08:49:23.880Z,55.05
2022-11-28T08:51:50.639Z,49.85
2022-11-28T08:54:17.395Z,57.85
2022-11-28T08:56:46.497Z,54.72
2022-11-28T08:59:13.121Z,55.33
2022-11-28T09:01:39.997Z,52.65
2022-11-28T09:04:06.687Z,52.10
2022-11-28T09:06:33.648Z,44.30
2022-11-28T09:09:02.256Z,52.33
2022-11-28T09:11:28.873Z,51.70
2022-11-28T09:13:55.809Z,56.40
2022-11-28T09:16:23.033Z,54.58
2022-11-28T09:18:49.728Z,53.30
2022-11-28T09:21:16.976Z,48.33
2022-11-28T09:23:44.881Z,52.53
2022-11-28T09:26:13.784Z,48.15
2022-11-28T09:28:40.961Z,49.03
2022-11-28T09:31:08.063Z,51.35
2022-11-28T09:33:35.775Z,58.13
2022-11-28T09:36:10.622Z,48.78
2022-11-28T09:38:37.787Z,55.55
2022-11-28T09:41:21.583Z,52.97
2022-11-28T09:43:54.673Z,54.05
2022-11-28T09:46:28.238Z,52.28
2022-11-28T09:48:59.778Z,58.28
2022-11-28T09:51:41.990Z,56.30
2022-11-28T09:54:18.666Z,52.65
2022-11-28T09:56:49.016Z,53.05
2022-11-28T09:59:28.357Z,53.92
2022-11-28T10:02:24.542Z,56.92
2022-11-28T10:05:00.383Z,49.47
2022-11-28T10:07:55.369Z,52.53
2022-11-28T10:10:43.690Z,47.70
2022-11-28T10:13:59.900Z,51.03
2022-11-28T10:16:51.935Z,48.80
2022-11-28T10:20:00.373Z,45.08
2022-11-28T10:22:53.328Z,45.60
2022-11-28T10:25:55.722Z,44.70
2022-11-28T10:28:37.408Z,51.05
2022-11-28T10:31:31.388Z,51.10
2022-11-28T10:34:22.503Z,42.35
2022-11-28T10:37:18.623Z,46.65
2022-11-28T10:39:48.604Z,39.92
2022-11-28T10:42:35.724Z,46.28
2022-11-28T10:45:34.934Z,39.15
2022-11-28T10:48:40.995Z,38.63
2022-11-28T10:51:34.784Z,38.85
2022-11-28T10:54:20.541Z,39.13
2022-11-28T10:57:01.251Z,41.05
2022-11-28T10:59:54.582Z,40.70
2022-11-28T11:02:43.132Z,36.97
2022-11-28T11:05:16.236Z,37.15
2022-11-28T11:07:52.583Z,40.28
2022-11-28T11:10:41.204Z,35.17
2022-11-28T11:13:26.268Z,36.65
2022-11-28T11:16:07.218Z,39.97
2022-11-28T11:18:37.791Z,41.58
2022-11-28T11:21:14.114Z,40.42
2022-11-28T11:23:40.902Z,40.33
2022-11-28T11:26:10.947Z,36.97
2022-11-28T11:28:45.218Z,39.33
2022-11-28T11:31:42.508Z,39.92
2022-11-28T11:34:20.567Z,37.95
2022-11-28T11:36:47.463Z,37.95
2022-11-28T11:39:14.102Z,39.33
2022-11-28T11:41:46.707Z,36.95
2022-11-28T11:44:20.428Z,42.55
2022-11-28T11:47:08.728Z,45.80
2022-11-28T11:49:49.854Z,46.47
2022-11-28T11:52:25.432Z,47.53
2022-11-28T11:55:04.045Z,43.63
2022-11-28T11:57:35.691Z,47.17
2022-11-28T12:00:22.209Z,48.72
2022-11-28T12:02:53.979Z,48.85
2022-11-28T12:05:46.389Z,46.90
2022-11-28T12:08:33.502Z,48.60
2022-11-28T12:11:24.414Z,46.45
2022-11-28T12:13:52.056Z,46.95
2022-11-28T12:16:30.804Z,51.28
2022-11-28T12:19:08.739Z,42.38
2022-11-28T12:22:07.389Z,50.40
2022-11-28T12:24:51.400Z,47.85
2022-11-28T12:27:27.247Z,48.00
2022-11-28T12:30:24.841Z,45.97
2022-11-28T12:33:16.515Z,43.83
2022-11-28T12:35:49.356Z,43.03
2022-11-28T12:38:52.677Z,49.22
2022-11-28T12:41:32.183Z,45.10
2022-11-28T12:44:14.256Z,45.00
2022-11-28T12:46:47.654Z,44.20
2022-11-28T12:50:00.358Z,44.90
2022-11-28T12:52:53.305Z,42.58
2022-11-28T12:55:28.716Z,47.53
2022-11-28T12:58:07.344Z,49.20
2022-11-28T13:00:38.810Z,53.20
2022-11-28T13:03:41.575Z,51.08
2022-11-28T13:06:36.243Z,53.05
2022-11-28T13:09:18.093Z,52.72
2022-11-28T13:12:00.751Z,51.75
2022-11-28T13:14:27.415Z,53.88
2022-11-28T13:16:58.940Z,52.88
2022-11-28T13:19:44.307Z,54.20
2022-11-28T13:22:23.432Z,54.72
2022-11-28T13:25:02.671Z,51.85
2022-11-28T13:27:51.107Z,53.33
2022-11-28T13:30:25.552Z,51.72
2022-11-28T13:33:14.147Z,53.45
2022-11-28T13:35:44.646Z,51.78
2022-11-28T13:38:36.981Z,54.00
2022-11-28T13:41:59.494Z,55.70
2022-11-28T13:44:37.823Z,52.90
2022-11-28T13:47:14.584Z,52.45
2022-11-28T13:49:42.005Z,54.67
2022-11-28T13:52:17.790Z,56.70
2022-11-28T13:54:51.959Z,53.35
2022-11-28T13:57:35.821Z,52.30
2022-11-28T14:00:23.803Z,55.65
2022-11-28T14:02:56.091Z,54.90
2022-11-28T14:05:36.737Z,54.92
2022-11-28T14:08:05.130Z,48.22
2022-11-28T14:10:40.507Z,53.30
2022-11-28T14:13:16.450Z,57.20
2022-11-28T14:15:59.399Z,53.08
2022-11-28T14:18:56.106Z,54.10
2022-11-28T14:21:57.671Z,55.22
2022-11-28T14:27:22.797Z,55.30
2022-11-28T14:29:53.109Z,57.85
2022-11-28T14:32:41.414Z,50.85
2022-11-28T14:35:52.204Z,54.40
2022-11-28T14:38:31.091Z,56.25
2022-11-28T14:41:11.694Z,54.90
2022-11-28T14:43:49.671Z,54.00
2022-11-28T14:46:16.308Z,54.25
2022-11-28T14:48:58.430Z,52.47
2022-11-28T14:51:44.148Z,54.83
2022-11-28T14:54:29.869Z,59.50
2022-11-28T14:57:00.074Z,56.85
2022-11-28T14:59:36.977Z,57.35
2022-11-28T15:02:26.791Z,56.38
2022-11-28T15:04:59.202Z,58.03
2022-11-28T15:07:54.147Z,58.05
2022-11-28T15:10:38.622Z,56.75
2022-11-28T15:13:23.711Z,63.65
2022-11-28T15:15:52.132Z,57.75
2022-11-28T15:18:20.474Z,55.72
2022-11-28T15:21:05.112Z,61.42
2022-11-28T15:23:38.507Z,57.28
2022-11-28T15:26:06.781Z,53.40
2022-11-28T15:28:35.629Z,54.45
2022-11-28T15:31:07.286Z,61.25
2022-11-28T15:33:34.257Z,59.30
2022-11-28T15:36:20.784Z,59.25
2022-11-28T15:38:47.473Z,61.33
2022-11-28T15:41:14.367Z,60.90
2022-11-28T15:43:46.671Z,55.40
2022-11-28T15:46:29.113Z,56.53
2022-11-28T15:48:55.964Z,57.83
2022-11-28T15:51:32.717Z,58.35
2022-11-28T15:53:59.948Z,56.20
2022-11-28T15:56:26.912Z,60.15
2022-11-28T15:58:53.973Z,64.07
2022-11-28T16:01:25.992Z,63.22
2022-11-28T16:04:10.382Z,62.22
2022-11-28T16:06:40.045Z,63.15
2022-11-28T16:09:24.214Z,59.72
2022-11-28T16:11:53.031Z,62.97
2022-11-28T16:14:27.768Z,68.53
2022-11-28T16:16:55.647Z,63.80
2022-11-28T16:19:32.099Z,61.95
2022-11-28T16:22:01.512Z,67.45
2022-11-28T16:24:56.444Z,68.97
2022-11-28T16:27:36.384Z,63.60
2022-11-28T16:30:27.795Z,68.85
2022-11-28T16:32:56.373Z,69.82
2022-11-28T16:35:41.601Z,72.75
2022-11-28T16:38:25.076Z,65.03
2022-11-28T16:40:59.020Z,66.20
2022-11-28T16:43:35.891Z,72.45
2022-11-28T16:46:06.653Z,76.47
2022-11-28T16:48:38.663Z,68.68
2022-11-28T16:51:28.524Z,75.72
2022-11-28T16:53:59.959Z,75.35
2022-11-28T16:56:29.703Z,72.95
2022-11-28T16:59:17.578Z,71.68
2022-11-28T17:01:47.099Z,75.60
2022-11-28T17:04:24.738Z,76.97
2022-11-28T17:06:53.131Z,74.32
2022-11-28T17:09:20.262Z,74.60
2022-11-28T17:11:56.079Z,74.13
2022-11-28T17:14:22.726Z,80.53
2022-11-28T17:16:49.475Z,77.15
2022-11-28T17:19:16.553Z,71.70
2022-11-28T17:21:50.778Z,73.85
2022-11-28T17:24:24.793Z,76.45
2022-11-28T17:26:53.179Z,75.70
2022-11-28T17:29:20.843Z,72.30
2022-11-28T17:31:48.657Z,69.18
2022-11-28T17:34:20.900Z,72.03
2022-11-28T17:36:47.949Z,77.47
2022-11-28T17:39:15.491Z,76.95
2022-11-28T17:41:42.283Z,70.43
2022-11-28T17:44:20.968Z,71.28
2022-11-28T17:46:48.875Z,76.10
2022-11-28T17:49:15.719Z,75.97
2022-11-28T17:51:43.034Z,78.82
2022-11-28T17:54:13.976Z,76.15
2022-11-28T17:56:40.547Z,70.78
2022-11-28T17:59:07.224Z,72.45
2022-11-28T18:01:33.890Z,70.93
2022-11-28T18:04:00.680Z,75.00
2022-11-28T18:06:27.286Z,73.95
2022-11-28T18:08:53.995Z,74.82
2022-11-28T18:11:21.230Z,71.50
2022-11-28T18:13:47.865Z,71.97
2022-11-28T18:16:17.514Z,77.75
2022-11-28T18:18:44.456Z,77.43
2022-11-28T18:21:11.850Z,79.70
2022-11-28T18:23:43.989Z,69.72
2022-11-28T18:26:14.081Z,69.47
2022-11-28T18:28:41.547Z,76.78
2022-11-28T18:31:14.300Z,73.15
2022-11-28T18:33:41.553Z,68.85
2022-11-28T18:36:26.234Z,74.18
2022-11-28T18:39:00.782Z,69.88
2022-11-28T18:41:27.848Z,68.88
2022-11-28T18:43:59.055Z,73.57
2022-11-28T18:46:26.451Z,66.63
2022-11-28T18:48:53.424Z,76.13
2022-11-28T18:51:24.960Z,70.10
2022-11-28T18:53:52.826Z,68.47
2022-11-28T18:56:20.492Z,72.03
2022-11-28T18:58:49.363Z,74.70
2022-11-28T19:01:25.440Z,70.45
2022-11-28T19:03:55.115Z,74.18
2022-11-28T19:06:22.274Z,68.32
2022-11-28T19:08:53.043Z,70.50
2022-11-28T19:11:20.323Z,65.03
2022-11-28T19:13:48.063Z,70.70
2022-11-28T19:16:24.201Z,70.35
2022-11-28T19:18:51.575Z,69.65
2022-11-28T19:21:31.061Z,68.18
2022-11-28T19:23:58.802Z,71.13
2022-11-28T19:26:27.151Z,69.65
2022-11-28T19:28:54.862Z,69.28
2022-11-28T19:31:28.038Z,69.50
2022-11-28T19:34:01.599Z,67.95
2022-11-28T19:36:30.994Z,72.72
2022-11-28T19:39:01.585Z,69.70
2022-11-28T19:41:29.554Z,71.35
2022-11-28T19:43:56.887Z,73.88
2022-11-28T19:46:24.031Z,65.50
2022-11-28T19:48:51.952Z,67.85
2022-11-28T19:51:19.070Z,67.18
2022-11-28T19:53:45.877Z,64.10
2022-11-28T19:56:14.912Z,66.50
2022-11-28T19:58:42.394Z,69.88
2022-11-28T20:01:14.947Z,67.00
2022-11-28T20:03:42.626Z,70.30
2022-11-28T20:06:16.034Z,67.15
2022-11-28T20:08:43.741Z,65.07
2022-11-28T20:11:22.650Z,66.50
2022-11-28T20:13:54.703Z,65.10
2022-11-28T20:16:21.347Z,66.90
2022-11-28T20:18:47.971Z,64.85
2022-11-28T20:21:17.585Z,65.70
2022-11-28T20:23:49.200Z,65.32
2022-11-28T20:26:17.452Z,62.17
2022-11-28T20:28:45.262Z,67.93
2022-11-28T20:31:22.015Z,67.80
2022-11-28T20:33:51.771Z,67.45
2022-11-28T20:36:20.302Z,69.53
2022-11-28T20:38:47.807Z,64.53
2022-11-28T20:41:15.842Z,64.80
2022-11-28T20:43:42.957Z,64.72
2022-11-28T20:46:15.495Z,65.95
2022-11-28T20:48:42.280Z,62.08
2022-11-28T20:51:29.492Z,58.05
2022-11-28T20:53:57.539Z,61.05
2022-11-28T20:56:26.650Z,63.70
2022-11-28T20:58:53.364Z,67.38
2022-11-28T21:01:23.194Z,68.30
2022-11-28T21:03:50.775Z,63.60
2022-11-28T21:06:18.202Z,66.55
2022-11-28T21:08:44.912Z,60.78
2022-11-28T21:11:30.522Z,63.45
2022-11-28T21:14:01.780Z,61.88
2022-11-28T21:16:31.353Z,61.50
2022-11-28T21:19:02.716Z,58.63
2022-11-28T21:21:31.405Z,66.15
2022-11-28T21:24:01.863Z,56.78
2022-11-28T21:26:30.700Z,62.65
2022-11-28T21:29:01.802Z,59.67
2022-11-28T21:31:31.638Z,59.88
2022-11-28T21:33:59.354Z,62.58
2022-11-28T21:36:28.113Z,62.08
2022-11-28T21:38:56.695Z,56.20
2022-11-28T21:41:26.487Z,59.90
2022-11-28T21:43:54.031Z,56.03
2022-11-28T21:46:20.989Z,58.58
2022-11-28T21:48:47.711Z,52.83
2022-11-28T21:51:22.879Z,55.80
2022-11-28T21:53:51.667Z,60.72
2022-11-28T21:56:18.661Z,55.33
2022-11-28T21:58:45.328Z,56.83
2022-11-28T22:01:14.005Z,60.42
2022-11-28T22:03:41.794Z,55.67
2022-11-28T22:06:25.310Z,59.17
2022-11-28T22:08:53.240Z,61.85
2022-11-28T22:11:21.280Z,52.53
2022-11-28T22:13:48.992Z,55.38
2022-11-28T22:16:21.862Z,58.58
2022-11-28T22:18:49.689Z,52.67
2022-11-28T22:24:04.043Z,56.70
2022-11-28T22:26:30.659Z,52.50
2022-11-28T22:28:58.866Z,55.15
2022-11-28T22:31:25.671Z,57.75
2022-11-28T22:33:52.851Z,52.33
2022-11-28T22:36:21.198Z,57.88
2022-11-28T22:38:48.946Z,55.38
2022-11-28T22:41:24.870Z,54.25
2022-11-28T22:43:56.718Z,51.45
2022-11-28T22:46:23.461Z,54.55
2022-11-28T22:48:51.888Z,58.80
2022-11-28T22:51:24.017Z,54.92
2022-11-28T22:53:54.111Z,55.22
2022-11-28T22:56:20.969Z,55.85
2022-11-28T22:58:47.741Z,61.47
2022-11-28T23:01:17.685Z,55.80
2022-11-28T23:03:45.021Z,56.70
2022-11-28T23:06:17.906Z,57.78
2022-11-28T23:08:45.204Z,54.22
2022-11-28T23:11:21.484Z,54.78
2022-11-28T23:13:49.246Z,53.13
2022-11-28T23:16:19.173Z,52.72
2022-11-28T23:18:47.935Z,55.65
2022-11-28T23:21:15.392Z,58.28
2022-11-28T23:23:43.925Z,60.38
2022-11-28T23:26:13.871Z,57.05
2022-11-28T23:28:41.238Z,57.50
2022-11-28T23:31:09.104Z,54.47
2022-11-28T23:33:36.947Z,56.65
2022-11-28T23:36:21.716Z,59.17
2022-11-28T23:38:50.400Z,52.95
2022-11-28T23:41:17.412Z,56.90
2022-11-28T23:43:44.514Z,57.83
2022-11-28T23:46:12.487Z,59.92
2022-11-28T23:48:39.673Z,57.72
2022-11-28T23:51:07.190Z,57.53
2022-11-28T23:53:34.538Z,58.78
2022-11-28T23:56:07.139Z,63.85
2022-11-28T23:58:35.116Z,58.80
